createdAt,value
2023-04-30T00:03:10.549Z,64.45
2023-04-30T00:07:12.127Z,64.19
2023-04-30T00:11:13.583Z,63.53
2023-04-30T00:15:15.042Z,60.75
2023-04-30T00:19:16.481Z,61.97
2023-04-30T00:23:17.913Z,63.93
2023-04-30T00:27:19.328Z,65.28
2023-04-30T00:31:20.958Z,65.83
2023-04-30T00:35:22.390Z,63.96
2023-04-30T00:39:23.936Z,62.19
2023-04-30T00:43:25.699Z,63.37
2023-04-30T00:47:27.233Z,62.78
2023-04-30T00:51:29.282Z,63.42
2023-04-30T00:55:30.767Z,61.66
2023-04-30T00:59:32.885Z,64.26
2023-04-30T01:03:36.542Z,63.89
2023-04-30T01:07:41.439Z,65.63
2023-04-30T01:11:55.046Z,64.18
2023-04-30T01:16:10.317Z,64.40
2023-04-30T01:20:12.798Z,64.55
2023-04-30T01:24:23.177Z,64.07
2023-04-30T01:28:25.330Z,65.71
2023-04-30T01:32:26.934Z,65.44
2023-04-30T01:36:40.462Z,66.32
2023-04-30T01:41:10.645Z,64.72
2023-04-30T01:45:20.653Z,64.14
2023-04-30T01:49:35.366Z,63.55
2023-04-30T01:53:44.368Z,65.48
2023-04-30T01:57:58.523Z,65.41
2023-04-30T02:02:00.429Z,62.54
2023-04-30T02:06:02.138Z,62.46
2023-04-30T02:10:04.811Z,61.10
2023-04-30T02:14:06.773Z,59.36
2023-04-30T02:18:08.377Z,59.54
2023-04-30T02:22:09.896Z,62.88
2023-04-30T02:26:11.304Z,60.12
2023-04-30T02:30:12.738Z,60.67
2023-04-30T02:34:14.798Z,61.38
2023-04-30T02:38:16.427Z,60.60
2023-04-30T02:42:17.831Z,62.05
2023-04-30T02:46:19.390Z,62.88
2023-04-30T02:50:20.936Z,63.19
2023-04-30T02:54:22.445Z,63.10
2023-04-30T02:58:24.114Z,62.65
2023-04-30T03:02:25.636Z,62.16
2023-04-30T03:06:27.289Z,59.72
2023-04-30T03:10:28.803Z,60.47
2023-04-30T03:14:30.392Z,58.44
2023-04-30T03:18:32.371Z,57.27
2023-04-30T03:22:33.907Z,56.26
2023-04-30T03:26:35.425Z,57.11
2023-04-30T03:30:36.857Z,57.50
2023-04-30T03:34:38.534Z,60.13
2023-04-30T03:38:41.729Z,60.23
2023-04-30T03:42:43.243Z,59.38
2023-04-30T03:46:45.103Z,62.37
2023-04-30T03:50:47.101Z,63.11
2023-04-30T03:54:48.555Z,63.31
2023-04-30T03:58:50.110Z,62.63
2023-04-30T04:02:51.659Z,63.12
2023-04-30T04:06:53.133Z,61.08
2023-04-30T04:10:55.299Z,61.27
2023-04-30T04:14:56.716Z,61.14
2023-04-30T04:18:58.746Z,60.04
2023-04-30T04:23:00.920Z,60.35
2023-04-30T04:27:05.658Z,62.14
2023-04-30T04:31:08.646Z,60.74
2023-04-30T04:35:10.141Z,52.32
2023-04-30T04:39:11.841Z,49.24
2023-04-30T04:43:13.515Z,47.31
2023-04-30T04:47:16.640Z,44.55
2023-04-30T04:51:18.291Z,46.17
2023-04-30T04:55:19.730Z,44.49
2023-04-30T04:59:22.213Z,45.40
2023-04-30T05:03:24.213Z,42.06
2023-04-30T05:07:25.690Z,42.08
2023-04-30T05:11:27.257Z,42.55
2023-04-30T05:15:30.451Z,44.73
2023-04-30T05:19:32.822Z,44.72
2023-04-30T05:23:35.406Z,49.25
2023-04-30T05:27:39.095Z,49.46
2023-04-30T05:31:40.736Z,50.41
2023-04-30T05:35:42.365Z,52.42
2023-04-30T05:39:43.795Z,53.59
2023-04-30T05:43:45.266Z,55.76
2023-04-30T05:47:46.794Z,55.32
2023-04-30T05:51:48.226Z,54.83
2023-04-30T05:55:49.963Z,55.29
2023-04-30T05:59:51.629Z,53.19
2023-04-30T06:03:53.236Z,54.20
2023-04-30T06:07:54.707Z,52.02
2023-04-30T06:11:56.349Z,54.36
2023-04-30T06:15:57.861Z,54.18
2023-04-30T06:20:02.248Z,53.74
2023-04-30T06:24:03.804Z,53.39
2023-04-30T06:28:05.957Z,54.63
2023-04-30T06:32:08.497Z,55.84
2023-04-30T06:36:10.330Z,55.63
2023-04-30T06:40:11.856Z,56.63
2023-04-30T06:44:13.489Z,52.46
2023-04-30T06:48:15.847Z,55.94
2023-04-30T06:52:17.369Z,57.61
2023-04-30T06:56:18.926Z,54.72
2023-04-30T07:00:20.415Z,53.60
2023-04-30T07:04:22.039Z,56.92
2023-04-30T07:08:23.471Z,55.85
2023-04-30T07:12:25.026Z,55.79
2023-04-30T07:16:27.907Z,54.57
2023-04-30T07:20:29.969Z,53.54
2023-04-30T07:24:31.432Z,56.49
2023-04-30T07:28:32.909Z,55.16
2023-04-30T07:32:38.152Z,53.89
2023-04-30T07:36:39.735Z,50.95
2023-04-30T07:40:41.221Z,53.30
2023-04-30T07:44:42.637Z,51.78
2023-04-30T07:48:44.401Z,51.86
2023-04-30T07:52:45.997Z,53.58
2023-04-30T07:56:48.823Z,51.07
2023-04-30T08:00:50.536Z,51.53
2023-04-30T08:04:51.967Z,52.02
2023-04-30T08:08:53.404Z,51.75
2023-04-30T08:12:55.043Z,51.12
2023-04-30T08:16:58.465Z,51.00
2023-04-30T08:21:01.139Z,51.69
2023-04-30T08:25:02.724Z,51.82
2023-04-30T08:29:04.165Z,51.72
2023-04-30T08:33:05.887Z,50.14
2023-04-30T08:37:07.567Z,49.44
2023-04-30T08:41:12.146Z,50.70
2023-04-30T08:45:14.504Z,49.21
2023-04-30T08:49:16.011Z,48.20
2023-04-30T08:53:17.797Z,49.21
2023-04-30T08:57:19.232Z,50.44
2023-04-30T09:01:21.206Z,48.19
2023-04-30T09:05:22.726Z,47.92
2023-04-30T09:09:28.775Z,48.53
2023-04-30T09:13:41.171Z,47.23
2023-04-30T09:17:42.674Z,47.19
2023-04-30T09:21:44.113Z,46.94
2023-04-30T09:25:45.657Z,46.05
2023-04-30T09:29:47.091Z,47.73
2023-04-30T09:33:48.509Z,48.13
2023-04-30T09:37:49.933Z,48.89
2023-04-30T09:41:52.207Z,46.92
2023-04-30T09:45:53.710Z,47.80
2023-04-30T09:49:55.551Z,46.20
2023-04-30T09:53:57.600Z,47.86
2023-04-30T09:58:01.584Z,46.46
2023-04-30T10:02:04.795Z,48.09
2023-04-30T10:06:07.874Z,48.07
2023-04-30T10:10:10.713Z,45.66
2023-04-30T10:14:16.314Z,48.58
2023-04-30T10:18:22.707Z,45.29
2023-04-30T10:22:24.691Z,44.56
2023-04-30T10:26:26.844Z,46.03
2023-04-30T10:30:28.703Z,43.35
2023-04-30T10:34:45.910Z,43.72
2023-04-30T10:38:48.566Z,41.88
2023-04-30T10:42:50.201Z,43.25
2023-04-30T10:46:58.952Z,41.93
2023-04-30T10:51:00.773Z,38.55
2023-04-30T10:55:07.396Z,39.94
2023-04-30T10:59:08.935Z,40.14
2023-04-30T11:03:10.558Z,42.94
2023-04-30T11:07:12.147Z,42.21
2023-04-30T11:11:22.872Z,43.10
2023-04-30T11:15:26.335Z,42.14
2023-04-30T11:19:29.820Z,44.08
2023-04-30T11:27:46.705Z,42.36
2023-04-30T11:31:48.369Z,41.67
2023-04-30T11:35:53.936Z,44.51
2023-04-30T11:39:59.786Z,44.80
2023-04-30T11:44:01.538Z,43.05
2023-04-30T11:48:03.261Z,43.97
2023-04-30T11:52:04.763Z,45.17
2023-04-30T11:56:07.156Z,44.94
2023-04-30T12:00:16.889Z,43.45
2023-04-30T12:04:19.792Z,44.36
2023-04-30T12:08:21.409Z,44.65
2023-04-30T12:12:32.892Z,44.24
2023-04-30T12:16:51.019Z,45.35
2023-04-30T12:20:53.367Z,43.83
2023-04-30T12:24:56.147Z,44.01
2023-04-30T12:28:57.670Z,46.46
2023-04-30T12:32:59.980Z,46.27
2023-04-30T12:37:01.910Z,46.23
2023-04-30T12:41:06.289Z,43.82
2023-04-30T12:45:08.257Z,44.63
2023-04-30T12:49:11.254Z,43.73
2023-04-30T12:53:12.771Z,43.55
2023-04-30T12:57:14.192Z,42.92
2023-04-30T13:01:24.322Z,45.34
2023-04-30T13:05:25.793Z,41.26
2023-04-30T13:09:27.224Z,43.38
2023-04-30T13:13:28.621Z,41.67
2023-04-30T13:17:30.187Z,43.49
2023-04-30T13:21:32.785Z,41.24
2023-04-30T13:25:35.109Z,41.78
2023-04-30T13:29:36.538Z,40.83
2023-04-30T13:33:37.983Z,41.45
2023-04-30T13:37:39.472Z,41.13
2023-04-30T13:41:40.927Z,42.57
2023-04-30T13:45:42.401Z,41.12
2023-04-30T13:49:43.966Z,42.40
2023-04-30T13:53:45.465Z,42.87
2023-04-30T13:57:47.034Z,42.05
2023-04-30T14:01:48.456Z,42.51
2023-04-30T14:05:50.023Z,41.38
2023-04-30T14:09:51.530Z,42.41
2023-04-30T14:13:53.819Z,41.11
2023-04-30T14:17:55.323Z,44.43
2023-04-30T14:21:56.861Z,42.35
2023-04-30T14:25:58.394Z,41.61
2023-04-30T14:29:59.869Z,39.89
2023-04-30T14:34:01.499Z,41.04
2023-04-30T14:38:03.599Z,40.14
2023-04-30T14:42:05.123Z,42.61
2023-04-30T14:46:06.741Z,41.21
2023-04-30T14:50:09.440Z,40.88
2023-04-30T14:54:10.948Z,41.71
2023-04-30T14:58:12.693Z,42.94
2023-04-30T15:02:14.254Z,41.97
2023-04-30T15:06:15.813Z,42.33
2023-04-30T15:10:17.430Z,40.40
2023-04-30T15:14:18.885Z,40.32
2023-04-30T15:18:20.573Z,38.73
2023-04-30T15:22:24.020Z,38.56
2023-04-30T15:26:25.909Z,40.50
2023-04-30T15:30:27.318Z,39.88
2023-04-30T15:34:29.374Z,38.89
2023-04-30T15:38:31.555Z,39.34
2023-04-30T15:42:33.095Z,39.42
2023-04-30T15:46:34.727Z,38.02
2023-04-30T15:50:36.323Z,37.33
2023-04-30T15:54:37.756Z,38.25
2023-04-30T15:58:39.850Z,37.20
2023-04-30T16:02:41.454Z,36.80
2023-04-30T16:06:43.118Z,37.72
2023-04-30T16:10:44.649Z,37.76
2023-04-30T16:14:46.061Z,36.98
2023-04-30T16:18:47.689Z,37.38
2023-04-30T16:22:49.564Z,38.06
2023-04-30T16:26:51.049Z,37.88
2023-04-30T16:30:52.660Z,37.89
2023-04-30T16:34:54.083Z,37.64
2023-04-30T16:38:55.491Z,38.40
2023-04-30T16:42:58.824Z,37.76
2023-04-30T16:47:00.271Z,36.23
2023-04-30T16:51:01.871Z,36.15
2023-04-30T16:55:04.579Z,34.01
2023-04-30T16:59:06.015Z,33.97
2023-04-30T17:03:07.542Z,34.06
2023-04-30T17:07:09.123Z,34.39
2023-04-30T17:11:10.619Z,33.05
2023-04-30T17:15:12.132Z,32.12
2023-04-30T17:19:14.001Z,33.35
2023-04-30T17:23:16.199Z,32.41
2023-04-30T17:27:18.122Z,32.56
2023-04-30T17:31:19.801Z,34.05
2023-04-30T17:35:22.288Z,34.52
2023-04-30T17:39:25.039Z,34.72
2023-04-30T17:43:26.484Z,34.97
2023-04-30T17:47:28.014Z,36.31
2023-04-30T17:51:31.454Z,37.69
2023-04-30T17:55:32.983Z,38.68
2023-04-30T17:59:34.933Z,38.96
2023-04-30T18:03:36.835Z,38.03
2023-04-30T18:07:38.447Z,38.62
2023-04-30T18:11:40.011Z,39.44
2023-04-30T18:15:41.698Z,40.20
2023-04-30T18:19:44.942Z,40.61
2023-04-30T18:23:47.304Z,40.07
2023-04-30T18:27:48.730Z,41.33
2023-04-30T18:31:50.245Z,43.78
2023-04-30T18:35:52.700Z,44.96
2023-04-30T18:39:54.606Z,45.63
2023-04-30T18:43:56.493Z,46.25
2023-04-30T18:47:57.973Z,46.18
2023-04-30T18:52:01.010Z,45.96
2023-04-30T18:56:02.488Z,45.81
2023-04-30T19:00:05.588Z,45.95
2023-04-30T19:04:09.154Z,46.41
2023-04-30T19:08:10.714Z,46.82
2023-04-30T19:12:12.347Z,47.68
2023-04-30T19:16:13.894Z,47.41
2023-04-30T19:20:15.851Z,48.20
2023-04-30T19:24:17.349Z,49.42
2023-04-30T19:28:18.825Z,51.78
2023-04-30T19:32:20.771Z,55.76
2023-04-30T19:36:22.362Z,56.57
2023-04-30T19:40:23.780Z,59.16
2023-04-30T19:44:25.788Z,59.45
2023-04-30T19:48:27.322Z,58.27
2023-04-30T19:52:28.754Z,59.77
2023-04-30T19:56:31.787Z,59.61
2023-04-30T20:00:37.866Z,64.12
2023-04-30T20:04:39.461Z,59.28
2023-04-30T20:08:40.951Z,59.04
2023-04-30T20:12:42.390Z,57.32
2023-04-30T20:16:43.969Z,58.08
2023-04-30T20:20:45.574Z,58.92
2023-04-30T20:24:48.114Z,57.87
2023-04-30T20:28:49.580Z,58.94
2023-04-30T20:32:51.188Z,59.13
2023-04-30T20:36:52.705Z,58.67
2023-04-30T20:40:55.306Z,71.01
2023-04-30T20:44:56.817Z,70.43
2023-04-30T20:49:03.853Z,67.21
2023-04-30T20:53:05.610Z,68.98
2023-04-30T20:57:08.220Z,68.59
2023-04-30T21:01:09.882Z,68.51
2023-04-30T21:05:11.549Z,70.34
2023-04-30T21:09:13.023Z,72.70
2023-04-30T21:13:14.934Z,81.31
2023-04-30T21:17:16.482Z,85.85
2023-04-30T21:21:17.997Z,83.72
2023-04-30T21:25:19.410Z,85.95
2023-04-30T21:29:20.857Z,90.84
2023-04-30T21:33:22.370Z,88.53
2023-04-30T21:37:23.830Z,82.04
2023-04-30T21:41:25.442Z,82.65
2023-04-30T21:45:26.892Z,89.25
2023-04-30T21:49:28.365Z,92.05
2023-04-30T21:53:29.766Z,84.02
2023-04-30T21:57:31.248Z,81.33
2023-04-30T22:01:32.754Z,79.35
2023-04-30T22:05:34.262Z,85.04
2023-04-30T22:09:35.798Z,82.94
2023-04-30T22:13:37.317Z,77.78
2023-04-30T22:17:38.779Z,77.33
2023-04-30T22:21:40.557Z,84.68
2023-04-30T22:25:42.010Z,85.95
2023-04-30T22:29:43.696Z,82.00
2023-04-30T22:33:46.018Z,77.46
2023-04-30T22:37:47.783Z,77.64
2023-04-30T22:41:50.676Z,82.67
2023-04-30T22:45:52.125Z,83.81
2023-04-30T22:49:57.307Z,88.04
2023-04-30T22:53:58.990Z,91.08
2023-04-30T22:58:01.581Z,92.38
2023-04-30T23:02:03.005Z,93.59
2023-04-30T23:06:04.743Z,94.36
2023-04-30T23:10:06.727Z,92.25
2023-04-30T23:14:08.162Z,87.79
2023-04-30T23:18:10.298Z,87.30
2023-04-30T23:22:11.829Z,92.49
2023-04-30T23:26:13.262Z,90.12
2023-04-30T23:30:14.788Z,83.45
2023-04-30T23:34:16.235Z,91.32
2023-04-30T23:38:17.657Z,91.34
2023-04-30T23:42:19.405Z,84.39
2023-04-30T23:46:21.071Z,86.57
2023-04-30T23:50:22.658Z,83.23
2023-04-30T23:54:24.080Z,80.39
2023-04-30T23:58:26.093Z,78.55
